Time;durP1;ratioP1;P1;durP2;ratioP2;P2;SDS_P1;SDS_P2;PMS_P1;PMS_P2;Temp;Humidity;BMP_temperature;BMP_pressure;BME280_temperature;BME280_humidity;BME280_pressure;Samples;Min_cycle;Max_cycle;Signal;HPM_P1;HPM_P2
2022/01/14 00:06:32;;;;;;;29.63;10.95;;;0.60;99.90;;;;;;6738382;88;20207;-75
2022/01/14 00:16:33;;;;;;;25.50;10.07;;;0.50;99.90;;;;;;6742488;88;20192;-76
2022/01/14 00:36:53;;;;;;;24.55;10.00;;;0.40;99.90;;;;;;6745332;88;20198;-76
2022/01/14 00:46:54;;;;;;;21.25;9.48;;;0.20;99.90;;;;;;6744028;88;20373;-76
2022/01/14 00:57:13;;;;;;;21.90;9.13;;;0.40;99.90;;;;;;6734790;88;20218;-75
2022/01/14 01:17:18;;;;;;;25.00;9.35;;;0.20;99.90;;;;;;6735296;88;20225;-77
2022/01/14 01:27:21;;;;;;;22.75;8.77;;;0.30;99.90;;;;;;6719086;88;20664;-78
2022/01/14 01:37:21;;;;;;;23.65;8.38;;;0.00;99.90;;;;;;6718402;88;20802;-76
2022/01/14 01:47:23;;;;;;;19.98;8.35;;;0.20;99.90;;;;;;6702003;88;20194;-77
2022/01/14 01:57:23;;;;;;;23.27;9.73;;;0.10;99.90;;;;;;6701089;88;20744;-78
2022/01/14 02:07:24;;;;;;;27.05;9.15;;;0.10;99.90;;;;;;6715382;88;20209;-77
2022/01/14 02:27:48;;;;;;;25.77;10.50;;;0.10;99.90;;;;;;6680137;88;20222;-77
2022/01/14 02:37:49;;;;;;;30.58;11.18;;;0.10;99.90;;;;;;6680531;88;20206;-77
2022/01/14 02:47:49;;;;;;;30.52;11.15;;;0.20;99.90;;;;;;6690076;88;20224;-77
2022/01/14 02:57:52;;;;;;;27.60;10.00;;;0.10;99.90;;;;;;6711046;88;20579;-77
2022/01/14 03:07:52;;;;;;;28.08;9.82;;;0.00;99.90;;;;;;6718201;88;20640;-77
2022/01/14 03:17:53;;;;;;;23.62;9.93;;;0.00;99.90;;;;;;6718596;88;20247;-78
2022/01/14 03:27:53;;;;;;;23.48;9.20;;;0.00;99.90;;;;;;6718076;88;20962;-77
2022/01/14 03:37:55;;;;;;;21.30;8.60;;;-0.10;99.90;;;;;;6718496;88;20211;-78
2022/01/14 03:47:56;;;;;;;22.62;8.93;;;-0.30;99.90;;;;;;6718344;88;20196;-77
2022/01/14 03:57:57;;;;;;;21.75;9.43;;;-0.50;99.90;;;;;;6715962;88;20231;-77
2022/01/14 04:07:58;;;;;;;23.92;9.68;;;-0.20;99.90;;;;;;6702498;88;20247;-78
2022/01/14 04:17:59;;;;;;;24.50;10.15;;;-0.30;99.90;;;;;;6702557;88;20186;-77
2022/01/14 04:28:00;;;;;;;25.40;9.88;;;-0.50;99.90;;;;;;6703120;88;20211;-78
2022/01/14 04:38:02;;;;;;;29.77;10.95;;;-0.60;99.90;;;;;;6703436;88;20216;-77
2022/01/14 04:48:05;;;;;;;29.02;11.98;;;-0.60;99.90;;;;;;6703744;88;20263;-78
2022/01/14 04:58:06;;;;;;;27.23;10.60;;;-0.40;99.90;;;;;;6705912;88;20316;-78
2022/01/14 05:08:11;;;;;;;26.77;9.68;;;-0.50;99.90;;;;;;6705732;88;22070;-77
2022/01/14 05:18:12;;;;;;;26.23;8.82;;;-0.50;99.90;;;;;;6706198;88;20212;-78
2022/01/14 05:28:13;;;;;;;26.58;9.77;;;-0.60;99.90;;;;;;6705717;88;20189;-78
2022/01/14 05:38:13;;;;;;;27.77;9.25;;;-0.80;99.90;;;;;;6706562;88;20214;-78
2022/01/14 05:48:14;;;;;;;24.37;9.75;;;-0.40;99.90;;;;;;6717422;88;20258;-78
2022/01/14 05:58:14;;;;;;;25.58;9.35;;;-0.50;99.90;;;;;;6724283;88;20335;-78
2022/01/14 06:08:15;;;;;;;22.80;9.40;;;-0.60;99.90;;;;;;6724779;88;20269;-78
2022/01/14 06:18:15;;;;;;;20.30;8.95;;;-0.60;99.90;;;;;;6725915;88;20188;-78
2022/01/14 06:28:16;;;;;;;23.25;10.00;;;-0.70;99.90;;;;;;6707682;88;20193;-78
2022/01/14 06:38:18;;;;;;;20.40;9.10;;;-0.60;99.90;;;;;;6708616;88;20207;-78
2022/01/14 06:48:19;;;;;;;25.15;9.70;;;-0.60;99.90;;;;;;6709075;88;20532;-79
2022/01/14 06:58:19;;;;;;;23.53;8.87;;;-0.70;99.90;;;;;;6714644;88;20190;-78
2022/01/14 07:08:20;;;;;;;20.42;9.00;;;-0.70;99.90;;;;;;6733007;77;20567;-74
2022/01/14 07:18:20;;;;;;;21.60;8.48;;;-0.80;99.90;;;;;;6732453;88;20200;-74
2022/01/14 07:28:21;;;;;;;28.75;9.70;;;-0.80;99.90;;;;;;6736541;88;20314;-73
2022/01/14 07:38:21;;;;;;;24.12;9.35;;;-0.90;99.90;;;;;;6742658;88;20494;-76
2022/01/14 07:48:23;;;;;;;24.02;8.77;;;-0.80;99.90;;;;;;6738619;88;20198;-76
2022/01/14 07:58:23;;;;;;;23.05;9.57;;;-0.80;99.90;;;;;;6735372;88;20183;-76
2022/01/14 08:08:24;;;;;;;22.35;9.30;;;-0.70;99.90;;;;;;6731007;88;20231;-75
2022/01/14 08:18:25;;;;;;;21.90;9.93;;;-0.60;99.90;;;;;;6737728;88;20750;-74
2022/01/14 08:28:26;;;;;;;22.10;9.30;;;-0.40;99.90;;;;;;6738668;88;20384;-74
2022/01/14 08:38:27;;;;;;;19.70;8.10;;;-0.10;99.90;;;;;;6732461;88;20575;-75
2022/01/14 08:48:30;;;;;;;19.58;9.30;;;0.30;99.90;;;;;;6735588;88;20193;-75
2022/01/14 08:58:31;;;;;;;19.90;8.15;;;0.40;99.90;;;;;;6733349;88;20327;-75
2022/01/14 09:08:31;;;;;;;19.48;8.68;;;0.70;99.90;;;;;;6729882;88;20772;-76
2022/01/14 09:18:32;;;;;;;20.60;8.48;;;1.10;99.90;;;;;;6735229;88;20198;-77
2022/01/14 09:28:34;;;;;;;16.33;8.00;;;1.70;99.90;;;;;;6738294;88;20203;-77
2022/01/14 09:38:34;;;;;;;18.12;8.23;;;1.70;99.90;;;;;;6731549;88;20255;-77
2022/01/14 09:48:35;;;;;;;18.35;8.60;;;2.40;99.90;;;;;;6733828;88;20801;-75
2022/01/14 09:58:37;;;;;;;17.15;8.75;;;2.40;99.90;;;;;;6738995;88;20189;-74
2022/01/14 10:08:38;;;;;;;16.83;8.35;;;3.00;99.90;;;;;;6744012;88;20749;-78
2022/01/14 10:18:39;;;;;;;16.45;7.82;;;3.50;99.90;;;;;;6737229;88;20181;-76
2022/01/14 10:28:43;;;;;;;15.65;7.85;;;4.20;99.90;;;;;;6730736;88;20230;-76
2022/01/14 10:38:46;;;;;;;15.38;8.05;;;4.20;99.90;;;;;;6735425;88;21351;-76
2022/01/14 10:48:54;;;;;;;22.15;9.02;;;4.90;99.90;;;;;;6729740;88;20205;-74
2022/01/14 10:58:58;;;;;;;15.05;8.07;;;5.70;99.90;;;;;;6726820;88;20252;-78
2022/01/14 11:09:04;;;;;;;12.32;7.37;;;7.80;99.90;;;;;;6724983;88;20236;-75
2022/01/14 11:19:08;;;;;;;15.30;7.87;;;9.60;99.90;;;;;;6721387;88;20233;-74
2022/01/14 11:29:16;;;;;;;14.85;7.97;;;10.90;99.90;;;;;;6719063;88;20387;-74
2022/01/14 11:39:28;;;;;;;15.70;7.93;;;11.50;99.90;;;;;;6728545;88;20312;-75
2022/01/14 11:49:37;;;;;;;15.73;8.15;;;12.10;99.90;;;;;;6726321;88;20230;-75
2022/01/14 11:59:39;;;;;;;14.02;7.65;;;11.70;99.90;;;;;;6730647;88;20199;-75
2022/01/14 12:09:59;;;;;;;12.05;7.25;;;12.60;99.90;;;;;;6727688;87;20210;-75
2022/01/14 12:20:18;;;;;;;13.85;7.37;;;13.30;99.90;;;;;;6726727;88;20191;-74
2022/01/14 12:30:22;;;;;;;17.08;9.25;;;13.20;99.90;;;;;;6726289;88;20286;-76
2022/01/14 12:40:36;;;;;;;17.47;9.47;;;12.80;99.90;;;;;;6728438;88;20344;-75
2022/01/14 12:50:36;;;;;;;19.80;10.20;;;12.40;99.90;;;;;;6727058;88;20215;-75
2022/01/14 13:00:39;;;;;;;21.15;11.80;;;12.20;99.90;;;;;;6728193;88;20270;-74
2022/01/14 13:10:40;;;;;;;25.40;12.13;;;13.10;99.90;;;;;;6727880;88;20216;-75
2022/01/14 13:20:41;;;;;;;32.65;15.02;;;11.50;99.90;;;;;;6730070;88;20224;-74
2022/01/14 13:30:43;;;;;;;29.98;13.82;;;9.60;99.90;;;;;;6742180;88;20218;-75
2022/01/14 13:40:56;;;;;;;44.80;16.65;;;8.30;99.90;;;;;;6728617;88;20188;-75
2022/01/14 13:51:10;;;;;;;41.92;16.23;;;7.20;99.90;;;;;;6729228;88;20714;-75
2022/01/14 14:01:11;;;;;;;37.50;13.65;;;6.50;99.90;;;;;;6726560;88;20296;-75
2022/01/14 14:21:34;;;;;;;37.25;14.70;;;5.70;99.90;;;;;;6732979;88;20184;-75
2022/01/14 14:31:34;;;;;;;36.33;14.90;;;5.80;99.90;;;;;;6733295;88;20256;-74
2022/01/14 14:41:38;;;;;;;33.67;13.30;;;6.10;99.90;;;;;;6725727;88;20235;-75
2022/01/14 14:51:39;;;;;;;33.92;12.52;;;6.10;99.90;;;;;;6730722;88;20186;-75
2022/01/14 15:01:43;;;;;;;31.05;12.73;;;5.90;99.90;;;;;;6721827;88;20308;-75
2022/01/14 15:11:59;;;;;;;;;;;;;;;;;;;;;
2022/01/14 15:22:20;;;;;;;35.03;12.23;;;5.80;99.90;;;;;;6730720;88;20189;-74
2022/01/14 15:32:23;;;;;;;32.30;12.23;;;5.90;99.90;;;;;;6731422;88;20184;-76
2022/01/14 15:42:26;;;;;;;33.47;12.65;;;5.50;99.90;;;;;;6724122;88;21090;-76
2022/01/14 15:52:27;;;;;;;35.22;12.30;;;5.30;99.90;;;;;;6723014;88;20199;-74
2022/01/14 16:02:27;;;;;;;28.62;11.75;;;5.30;99.90;;;;;;6724735;88;20709;-74
2022/01/14 16:12:36;;;;;;;27.43;11.70;;;5.00;99.90;;;;;;6723670;88;20198;-75
2022/01/14 16:22:38;;;;;;;35.72;12.65;;;5.00;99.90;;;;;;6728009;88;20543;-75
2022/01/14 16:32:44;;;;;;;31.95;12.45;;;4.90;99.90;;;;;;6732194;88;20182;-75
2022/01/14 16:42:46;;;;;;;34.70;13.43;;;5.00;99.90;;;;;;6755230;77;20193;-79
2022/01/14 16:52:48;;;;;;;36.90;14.32;;;4.90;99.90;;;;;;6760059;88;20191;-77
2022/01/14 17:02:49;;;;;;;40.83;14.90;;;5.10;99.90;;;;;;6723213;88;20233;-77
2022/01/14 17:12:50;;;;;;;42.17;15.80;;;5.00;99.90;;;;;;6731981;88;20193;-76
2022/01/14 17:22:50;;;;;;;38.40;15.88;;;5.00;99.90;;;;;;6730651;88;20522;-76
2022/01/14 17:32:51;;;;;;;54.65;19.00;;;5.00;99.90;;;;;;6732842;88;20214;-78
2022/01/14 17:42:51;;;;;;;50.17;19.15;;;4.80;99.90;;;;;;6725413;88;20189;-76
2022/01/14 17:52:52;;;;;;;49.15;19.40;;;4.70;99.90;;;;;;6754844;88;20647;-77
2022/01/14 18:02:54;;;;;;;52.40;18.42;;;4.60;99.90;;;;;;6738807;88;20176;-77
2022/01/14 18:22:56;;;;;;;40.25;16.20;;;4.70;99.90;;;;;;6734055;88;20207;-76
2022/01/14 18:32:59;;;;;;;34.00;14.02;;;4.70;99.90;;;;;;6730316;88;20174;-75
2022/01/14 18:43:00;;;;;;;35.90;14.10;;;4.80;99.90;;;;;;6725168;88;20687;-75
2022/01/14 18:53:01;;;;;;;41.13;15.43;;;4.60;99.90;;;;;;6724723;88;20231;-75
2022/01/14 19:03:01;;;;;;;35.38;15.10;;;4.90;99.90;;;;;;6725387;88;20213;-76
2022/01/14 19:13:02;;;;;;;38.15;14.90;;;4.90;99.90;;;;;;6729564;88;20192;-77
2022/01/14 19:23:02;;;;;;;36.08;14.73;;;4.80;99.90;;;;;;6738607;88;20246;-77
2022/01/14 19:33:03;;;;;;;39.67;15.88;;;4.70;99.90;;;;;;6740835;88;20196;-77
2022/01/14 19:43:06;;;;;;;38.03;15.80;;;4.70;99.90;;;;;;6735638;88;20224;-78
2022/01/14 19:53:09;;;;;;;40.00;15.60;;;4.70;99.90;;;;;;6740519;88;20218;-78
2022/01/14 20:03:13;;;;;;;46.03;15.88;;;4.60;99.90;;;;;;6737952;88;20274;-77
2022/01/14 20:13:14;;;;;;;35.38;14.48;;;4.50;99.90;;;;;;6744485;88;20185;-77
2022/01/14 20:23:14;;;;;;;38.13;16.25;;;4.50;99.90;;;;;;6739855;88;20619;-78
2022/01/14 20:33:15;;;;;;;38.30;15.20;;;4.40;99.90;;;;;;6748411;88;20193;-77
2022/01/14 20:43:16;;;;;;;37.90;15.57;;;4.40;99.90;;;;;;6750256;88;20203;-76
2022/01/14 20:53:17;;;;;;;37.80;15.98;;;4.50;99.90;;;;;;6738918;88;20189;-76
2022/01/14 21:03:17;;;;;;;33.58;15.38;;;4.60;99.90;;;;;;6736187;88;20363;-76
2022/01/14 21:13:18;;;;;;;39.42;15.35;;;4.40;99.90;;;;;;6736064;88;20257;-77
2022/01/14 21:23:19;;;;;;;36.30;14.95;;;4.10;99.90;;;;;;6735492;88;20177;-77
2022/01/14 21:33:20;;;;;;;38.58;15.18;;;4.30;99.90;;;;;;6735429;88;20559;-77
2022/01/14 21:43:21;;;;;;;36.70;15.93;;;4.30;99.90;;;;;;6735131;88;20742;-77
2022/01/14 21:53:22;;;;;;;47.22;16.55;;;4.10;99.90;;;;;;6735666;88;20460;-78
2022/01/14 22:03:22;;;;;;;38.45;16.02;;;4.30;99.90;;;;;;6739825;88;20176;-81
2022/01/14 22:13:35;;;;;;;42.35;16.02;;;4.30;99.90;;;;;;6754894;88;20600;-77
2022/01/14 22:23:40;;;;;;;39.85;17.12;;;4.10;99.90;;;;;;6735582;88;20202;-78
2022/01/14 22:33:40;;;;;;;40.72;17.15;;;4.10;99.90;;;;;;6736985;88;20221;-77
2022/01/14 22:43:41;;;;;;;43.67;17.17;;;4.00;99.90;;;;;;6734652;77;20255;-75
2022/01/14 22:53:41;;;;;;;44.47;16.48;;;4.10;99.90;;;;;;6705468;88;20302;-74
2022/01/14 23:03:44;;;;;;;41.97;17.62;;;4.00;99.90;;;;;;6711256;88;20264;-75
2022/01/14 23:13:44;;;;;;;45.97;16.30;;;3.90;99.90;;;;;;6706410;88;20221;-75
2022/01/14 23:23:45;;;;;;;44.75;16.17;;;4.00;99.90;;;;;;6713955;88;21025;-75
2022/01/14 23:33:46;;;;;;;41.28;15.57;;;3.90;99.90;;;;;;6716530;88;20215;-74
2022/01/14 23:53:57;;;;;;;44.63;16.37;;;3.70;99.90;;;;;;6698754;88;20323;-74
